Time;durP1;ratioP1;P1;durP2;ratioP2;P2;SDS_P1;SDS_P2;PMS_P1;PMS_P2;Temp;Humidity;BMP_temperature;BMP_pressure;BME280_temperature;BME280_humidity;BME280_pressure;Samples;Min_cycle;Max_cycle;Signal;HPM_P1;HPM_P2
2023/03/15 00:01:08;;;;;;;0.53;0.30;;;9.70;59.70;9.50;95659.00;;;;5097386;28;20269;-75
2023/03/15 00:03:36;;;;;;;1.50;0.50;;;9.70;59.80;9.50;95656.00;;;;5112181;28;20233;-75
2023/03/15 00:06:05;;;;;;;1.07;0.50;;;9.70;59.90;9.50;95660.00;;;;5107078;28;20211;-74
2023/03/15 00:08:34;;;;;;;1.07;0.30;;;9.70;60.00;9.50;95664.00;;;;5097054;28;20221;-75
2023/03/15 00:11:02;;;;;;;0.67;0.40;;;9.70;60.10;9.50;95657.00;;;;5103562;28;20195;-75
2023/03/15 00:13:30;;;;;;;0.70;0.60;;;9.70;60.10;9.50;95680.00;;;;5106970;28;20195;-77
2023/03/15 00:16:01;;;;;;;0.87;0.73;;;9.70;60.20;9.60;95672.00;;;;5093785;28;20217;-77
2023/03/15 00:18:29;;;;;;;0.87;0.50;;;9.70;60.50;9.50;95676.00;;;;5092689;28;20206;-77
2023/03/15 00:20:57;;;;;;;0.43;0.33;;;9.70;60.80;9.50;95682.00;;;;5098111;28;20274;-77
2023/03/15 00:23:24;;;;;;;1.00;0.50;;;9.70;61.00;9.50;95671.00;;;;5091169;28;20199;-75
2023/03/15 00:25:53;;;;;;;1.67;0.40;;;9.70;61.40;9.40;95672.00;;;;5092939;28;20245;-75
2023/03/15 00:28:21;;;;;;;0.40;0.40;;;9.70;61.40;9.40;95664.00;;;;5091984;28;20655;-75
2023/03/15 00:30:50;;;;;;;0.60;0.40;;;9.70;61.40;9.40;95669.00;;;;5099102;28;20231;-75
2023/03/15 00:33:18;;;;;;;2.43;0.70;;;9.70;61.40;9.40;95669.00;;;;5109111;28;20694;-75
2023/03/15 00:35:46;;;;;;;0.43;0.40;;;9.70;61.40;9.40;95657.00;;;;5112218;28;20194;-75
2023/03/15 00:38:14;;;;;;;0.50;0.30;;;9.70;61.60;9.40;95659.00;;;;5112798;28;20249;-75
2023/03/15 00:40:42;;;;;;;0.30;0.30;;;9.70;61.50;9.40;95662.00;;;;5102666;28;20660;-77
2023/03/15 00:43:11;;;;;;;0.77;0.60;;;9.60;61.40;9.40;95661.00;;;;5092673;28;20240;-77
2023/03/15 00:45:38;;;;;;;0.70;0.37;;;9.60;61.60;9.40;95657.00;;;;5101496;28;20282;-75
2023/03/15 00:48:06;;;;;;;0.43;0.30;;;9.60;61.60;9.40;95656.00;;;;5111555;28;20271;-75
2023/03/15 00:50:34;;;;;;;0.30;0.20;;;9.60;61.60;9.40;95655.00;;;;5099266;28;20194;-75
2023/03/15 00:53:01;;;;;;;0.83;0.37;;;9.60;61.70;9.40;95664.00;;;;5112067;28;20281;-75
2023/03/15 00:55:28;;;;;;;0.10;0.10;;;9.60;61.70;9.40;95662.00;;;;5104237;28;20580;-74
2023/03/15 00:57:56;;;;;;;0.50;0.20;;;9.60;61.80;9.40;95669.00;;;;5094547;28;20261;-75
2023/03/15 01:00:26;;;;;;;0.70;0.20;;;9.60;61.90;9.40;95677.00;;;;5094377;28;20711;-76
2023/03/15 01:02:54;;;;;;;0.23;0.23;;;9.60;62.00;9.30;95689.00;;;;5094545;28;20195;-75
2023/03/15 01:05:23;;;;;;;0.40;0.40;;;9.60;62.20;9.30;95687.00;;;;5093154;28;20195;-75
2023/03/15 01:07:51;;;;;;;0.70;0.50;;;9.60;62.50;9.30;95688.00;;;;5092644;28;20306;-74
2023/03/15 01:10:19;;;;;;;0.50;0.50;;;9.60;62.30;9.30;95692.00;;;;5103354;28;20309;-75
2023/03/15 01:12:47;;;;;;;0.80;0.40;;;9.50;62.50;9.20;95689.00;;;;5106964;28;20274;-75
2023/03/15 01:15:17;;;;;;;0.90;0.33;;;9.50;62.60;9.20;95683.00;;;;5104344;28;20195;-75
2023/03/15 01:17:45;;;;;;;0.60;0.57;;;9.50;62.90;9.20;95685.00;;;;5101081;28;20219;-75
2023/03/15 01:20:15;;;;;;;0.40;0.40;;;9.50;63.10;9.20;95692.00;;;;5112935;28;20646;-75
2023/03/15 01:22:43;;;;;;;0.60;0.40;;;9.40;63.20;9.10;95688.00;;;;5114389;28;20655;-75
2023/03/15 01:25:11;;;;;;;0.57;0.50;;;9.40;63.40;9.10;95688.00;;;;5114856;28;20198;-75
2023/03/15 01:27:38;;;;;;;0.63;0.37;;;9.40;63.30;9.00;95688.00;;;;5114013;28;20225;-75
2023/03/15 01:30:08;;;;;;;0.30;0.30;;;9.30;63.20;9.00;95682.00;;;;5116203;28;20317;-75
2023/03/15 01:32:36;;;;;;;0.30;0.30;;;9.30;63.50;8.90;95686.00;;;;5105591;28;20327;-75
2023/03/15 01:35:05;;;;;;;0.73;0.47;;;9.30;63.70;8.90;95682.00;;;;5094365;28;20203;-75
2023/03/15 01:37:33;;;;;;;0.53;0.53;;;9.20;63.90;8.90;95676.00;;;;5095203;28;20587;-75
2023/03/15 01:40:05;;;;;;;0.30;0.30;;;9.20;64.20;8.80;95677.00;;;;5095045;28;20293;-75
2023/03/15 01:42:32;;;;;;;0.20;0.20;;;9.10;64.30;8.80;95681.00;;;;5110813;28;20255;-75
2023/03/15 01:45:00;;;;;;;0.30;0.30;;;9.10;64.50;8.80;95679.00;;;;5115771;27;20201;-75
2023/03/15 01:47:28;;;;;;;0.57;0.30;;;9.10;64.60;8.70;95681.00;;;;5099439;28;20665;-75
2023/03/15 01:50:04;;;;;;;0.40;0.33;;;9.00;64.80;8.70;95681.00;;;;5101488;28;20227;-75
2023/03/15 01:52:41;;;;;;;0.47;0.40;;;9.00;64.90;8.70;95679.00;;;;5108497;28;20213;-75
2023/03/15 01:55:14;;;;;;;0.43;0.43;;;9.00;65.10;8.70;95676.00;;;;5113188;28;20813;-75
2023/03/15 01:57:49;;;;;;;0.37;0.30;;;9.00;65.20;8.60;95668.00;;;;5113489;28;20229;-75
2023/03/15 02:00:20;;;;;;;0.50;0.40;;;8.90;65.50;8.60;95670.00;;;;5107947;28;20291;-75
2023/03/15 02:02:53;;;;;;;0.40;0.40;;;8.90;65.50;8.60;95692.00;;;;5099455;28;20218;-75
2023/03/15 02:05:26;;;;;;;0.50;0.50;;;8.90;65.70;8.60;95691.00;;;;5105765;28;20278;-75
2023/03/15 02:07:56;;;;;;;0.47;0.47;;;8.90;66.60;8.60;95688.00;;;;5103004;28;20217;-75
2023/03/15 02:10:31;;;;;;;0.30;0.30;;;8.90;65.70;8.60;95689.00;;;;5084903;28;20226;-75
2023/03/15 02:13:00;;;;;;;0.50;0.40;;;8.90;65.80;8.60;95693.00;;;;5086908;28;20732;-75
2023/03/15 02:15:27;;;;;;;0.30;0.30;;;8.80;65.80;8.60;95700.00;;;;5094593;28;20207;-75
2023/03/15 02:17:55;;;;;;;0.50;0.40;;;8.80;65.90;8.60;95705.00;;;;5114996;28;20242;-75
2023/03/15 02:20:35;;;;;;;0.50;0.50;;;8.80;66.30;8.60;95710.00;;;;5095897;28;20204;-75
2023/03/15 02:23:10;;;;;;;0.47;0.40;;;8.80;66.60;8.60;95720.00;;;;5094366;28;20630;-74
2023/03/15 02:25:50;;;;;;;0.97;0.40;;;8.80;66.70;8.60;95716.00;;;;5094347;28;20694;-75
2023/03/15 02:28:20;;;;;;;0.60;0.60;;;8.80;66.90;8.60;95723.00;;;;5095039;28;20707;-75
2023/03/15 02:30:48;;;;;;;0.40;0.40;;;8.80;66.90;8.70;95721.00;;;;5113648;28;20218;-75
2023/03/15 02:33:22;;;;;;;0.30;0.30;;;8.80;66.80;8.60;95734.00;;;;5095019;28;20195;-75
2023/03/15 02:35:50;;;;;;;0.43;0.43;;;8.80;66.60;8.60;95742.00;;;;5114069;28;20217;-75
2023/03/15 02:38:18;;;;;;;0.30;0.27;;;8.80;66.50;8.60;95754.00;;;;5092517;28;20203;-75
2023/03/15 02:40:46;;;;;;;0.40;0.40;;;8.80;66.40;8.50;95763.00;;;;5114715;28;20572;-75
2023/03/15 02:43:20;;;;;;;0.30;0.30;;;8.80;66.60;8.50;95767.00;;;;5103023;28;20201;-75
2023/03/15 02:45:48;;;;;;;0.30;0.30;;;8.80;66.50;8.50;95775.00;;;;5092631;28;20797;-75
2023/03/15 02:48:17;;;;;;;0.30;0.30;;;8.80;66.50;8.50;95789.00;;;;5101098;28;20225;-75
2023/03/15 02:50:45;;;;;;;0.40;0.40;;;8.70;66.50;8.40;95793.00;;;;5093225;28;20219;-75
2023/03/15 02:53:12;;;;;;;0.50;0.40;;;8.70;66.00;8.30;95805.00;;;;5093073;28;20282;-75
2023/03/15 02:55:40;;;;;;;0.20;0.20;;;8.70;66.10;8.20;95817.00;;;;5106950;28;20186;-75
2023/03/15 02:58:07;;;;;;;1.00;0.60;;;8.60;66.10;8.20;95823.00;;;;5111128;28;20654;-75
2023/03/15 03:00:36;;;;;;;0.30;0.30;;;8.60;66.10;8.10;95829.00;;;;5093871;28;20205;-75
2023/03/15 03:03:03;;;;;;;0.50;0.47;;;8.50;66.30;8.10;95832.00;;;;5112006;28;20685;-75
2023/03/15 03:05:31;;;;;;;0.40;0.40;;;8.40;66.20;8.00;95852.00;;;;5097243;28;20205;-75
2023/03/15 03:07:58;;;;;;;0.33;0.30;;;8.40;66.10;7.90;95854.00;;;;5093712;28;20306;-75
2023/03/15 03:10:26;;;;;;;0.30;0.30;;;8.30;66.00;7.80;95859.00;;;;5104739;28;20210;-75
2023/03/15 03:12:54;;;;;;;0.50;0.50;;;8.30;66.30;7.80;95870.00;;;;5112689;28;20201;-75
2023/03/15 03:15:22;;;;;;;0.33;0.30;;;8.20;66.20;7.70;95870.00;;;;5112046;28;20202;-75
2023/03/15 03:17:51;;;;;;;0.63;0.40;;;8.10;66.20;7.60;95872.00;;;;5113369;28;20223;-75
2023/03/15 03:20:18;;;;;;;0.50;0.50;;;8.00;65.80;7.50;95883.00;;;;5103867;28;20301;-75
2023/03/15 03:22:45;;;;;;;0.60;0.60;;;8.00;66.00;7.40;95890.00;;;;5113217;28;20206;-75
2023/03/15 03:25:13;;;;;;;0.70;0.60;;;7.90;66.40;7.40;95892.00;;;;5091705;28;20275;-75
2023/03/15 03:27:42;;;;;;;1.30;0.40;;;7.80;66.40;7.40;95905.00;;;;5075444;28;20298;-75
2023/03/15 03:30:13;;;;;;;0.50;0.50;;;7.80;66.60;7.40;95907.00;;;;5098045;28;20220;-75
2023/03/15 03:32:41;;;;;;;0.70;0.60;;;7.80;66.80;7.30;95912.00;;;;5099790;28;20302;-75
2023/03/15 03:35:10;;;;;;;0.77;0.70;;;7.70;66.90;7.30;95930.00;;;;5092220;28;20262;-75
2023/03/15 03:37:38;;;;;;;1.90;0.50;;;7.70;67.10;7.30;95939.00;;;;5098601;28;20304;-75
2023/03/15 03:40:07;;;;;;;1.77;0.77;;;7.70;67.00;7.20;95948.00;;;;5112100;28;20202;-76
2023/03/15 03:42:35;;;;;;;0.73;0.73;;;7.60;66.80;7.20;95958.00;;;;5109782;28;20195;-75
2023/03/15 03:45:03;;;;;;;0.93;0.93;;;7.60;66.90;7.20;95961.00;;;;5075062;28;20231;-75
2023/03/15 03:47:30;;;;;;;2.80;1.10;;;7.60;66.90;7.20;95967.00;;;;5090044;28;20219;-75
2023/03/15 03:49:58;;;;;;;1.87;0.90;;;7.60;67.00;7.20;95975.00;;;;5105754;28;20232;-75
2023/03/15 03:52:28;;;;;;;1.93;0.90;;;7.50;67.20;7.20;95981.00;;;;5111341;28;20199;-75
2023/03/15 03:54:56;;;;;;;1.70;0.90;;;7.50;67.60;7.20;95989.00;;;;5109413;28;20191;-75
2023/03/15 03:57:23;;;;;;;1.80;0.80;;;7.50;67.50;7.20;95995.00;;;;5110637;28;20253;-75
2023/03/15 03:59:50;;;;;;;0.70;0.70;;;7.50;67.60;7.10;96006.00;;;;5109900;28;20689;-75
2023/03/15 04:02:18;;;;;;;2.07;0.77;;;7.50;67.80;7.10;96014.00;;;;5109364;28;20198;-75
2023/03/15 04:04:49;;;;;;;0.80;0.60;;;7.50;67.80;7.10;96014.00;;;;5112760;28;20198;-75
2023/03/15 04:07:17;;;;;;;0.50;0.50;;;7.50;67.70;7.10;96020.00;;;;5112514;28;20214;-75
2023/03/15 04:09:45;;;;;;;0.70;0.70;;;7.40;67.60;7.10;96029.00;;;;5105879;27;20242;-74
2023/03/15 04:12:13;;;;;;;0.40;0.40;;;7.40;67.80;7.10;96036.00;;;;5110704;28;20254;-75
2023/03/15 04:14:40;;;;;;;0.87;0.50;;;7.40;67.80;7.00;96046.00;;;;5104688;28;20200;-75
2023/03/15 04:17:08;;;;;;;0.43;0.43;;;7.40;67.90;7.00;96055.00;;;;5105354;28;20224;-75
2023/03/15 04:19:36;;;;;;;0.37;0.37;;;7.40;67.90;7.00;96057.00;;;;5107107;28;20582;-75
2023/03/15 04:22:05;;;;;;;0.60;0.47;;;7.30;67.50;6.90;96064.00;;;;5101631;28;20278;-75
2023/03/15 04:24:34;;;;;;;0.30;0.30;;;7.30;67.90;6.90;96071.00;;;;5094980;28;20197;-75
2023/03/15 04:27:04;;;;;;;0.40;0.40;;;7.30;67.80;6.90;96063.00;;;;5110114;28;20269;-75
2023/03/15 04:29:31;;;;;;;1.33;0.50;;;7.30;67.60;6.80;96078.00;;;;5094817;28;20248;-75
2023/03/15 04:32:00;;;;;;;0.60;0.47;;;7.20;67.80;6.80;96078.00;;;;5096476;28;20217;-75
2023/03/15 04:34:29;;;;;;;0.37;0.30;;;7.20;67.50;6.70;96095.00;;;;5102300;28;20244;-75
2023/03/15 04:36:58;;;;;;;0.30;0.30;;;7.10;67.60;6.70;96101.00;;;;5098175;28;20258;-75
2023/03/15 04:39:25;;;;;;;0.60;0.60;;;7.10;68.50;6.60;96109.00;;;;5103267;28;20194;-75
2023/03/15 04:41:54;;;;;;;0.57;0.57;;;7.10;68.00;6.60;96124.00;;;;5098144;28;20213;-75
2023/03/15 04:44:25;;;;;;;0.40;0.40;;;7.10;68.00;6.60;96115.00;;;;5094780;28;20206;-75
2023/03/15 04:46:53;;;;;;;1.07;0.53;;;7.00;68.10;6.50;96122.00;;;;5093019;28;20982;-75
2023/03/15 04:49:20;;;;;;;0.63;0.50;;;6.90;68.00;6.50;96137.00;;;;5102223;28;20286;-75
2023/03/15 04:51:47;;;;;;;0.57;0.40;;;6.90;68.10;6.40;96141.00;;;;5114804;27;20212;-75
2023/03/15 04:54:14;;;;;;;1.27;0.40;;;6.90;68.20;6.40;96147.00;;;;5110307;28;20188;-75
2023/03/15 04:56:42;;;;;;;1.37;0.40;;;6.90;68.40;6.40;96148.00;;;;5104514;28;20229;-74
2023/03/15 04:59:10;;;;;;;1.17;0.30;;;6.80;68.30;6.30;96154.00;;;;5095891;28;20191;-75
2023/03/15 05:01:38;;;;;;;1.13;0.50;;;6.80;68.20;6.30;96158.00;;;;5096124;28;20696;-75
2023/03/15 05:04:06;;;;;;;1.80;0.50;;;6.80;68.50;6.30;96161.00;;;;5097944;28;20245;-75
2023/03/15 05:06:33;;;;;;;0.73;0.53;;;6.70;68.70;6.30;96161.00;;;;5109415;28;20307;-75
2023/03/15 05:09:00;;;;;;;1.63;0.70;;;6.70;69.10;6.30;96171.00;;;;5099885;28;20234;-75
2023/03/15 05:11:28;;;;;;;0.63;0.60;;;6.70;69.30;6.30;96178.00;;;;5094882;28;20219;-75
2023/03/15 05:13:55;;;;;;;0.77;0.50;;;6.70;69.20;6.30;96173.00;;;;5101097;28;20654;-75
2023/03/15 05:16:23;;;;;;;0.57;0.53;;;6.70;69.50;6.30;96185.00;;;;5099496;28;20298;-75
2023/03/15 05:18:52;;;;;;;0.60;0.60;;;6.70;69.70;6.30;96186.00;;;;5084957;28;20242;-75
2023/03/15 05:21:20;;;;;;;0.60;0.50;;;6.60;69.80;6.30;96191.00;;;;5096022;28;20237;-75
2023/03/15 05:23:50;;;;;;;0.50;0.50;;;6.60;69.90;6.30;96194.00;;;;5097930;28;20630;-75
2023/03/15 05:26:17;;;;;;;0.87;0.80;;;6.60;69.80;6.30;96201.00;;;;5115768;27;20214;-75
2023/03/15 05:28:45;;;;;;;1.83;0.60;;;6.60;69.90;6.30;96209.00;;;;5106189;28;20201;-75
2023/03/15 05:31:13;;;;;;;4.73;1.10;;;6.60;70.20;6.30;96214.00;;;;5111648;28;20948;-75
2023/03/15 05:33:45;;;;;;;1.20;1.10;;;6.60;70.20;6.30;96230.00;;;;5101162;28;20202;-77
2023/03/15 05:36:14;;;;;;;1.27;0.90;;;6.70;70.40;6.40;96230.00;;;;5114177;28;20215;-77
2023/03/15 05:38:41;;;;;;;1.57;1.03;;;6.60;70.50;6.40;96239.00;;;;5113682;28;20197;-77
2023/03/15 05:41:09;;;;;;;1.10;0.97;;;6.70;70.50;6.50;96245.00;;;;5092091;28;20305;-76
2023/03/15 05:43:37;;;;;;;1.67;1.03;;;6.70;70.50;6.50;96253.00;;;;5091093;28;20201;-77
2023/03/15 05:46:04;;;;;;;1.00;1.00;;;6.70;70.60;6.60;96258.00;;;;5092131;28;20699;-77
2023/03/15 05:48:31;;;;;;;1.03;1.03;;;6.80;70.80;6.60;96255.00;;;;5110823;28;20211;-77
2023/03/15 05:50:58;;;;;;;4.17;1.33;;;6.80;70.90;6.70;96266.00;;;;5093268;28;20235;-77
2023/03/15 05:53:27;;;;;;;1.67;1.30;;;6.80;70.80;6.70;96276.00;;;;5093938;28;20295;-76
2023/03/15 05:55:54;;;;;;;3.53;1.43;;;6.80;71.00;6.70;96277.00;;;;5101938;28;20321;-76
2023/03/15 05:58:22;;;;;;;1.67;1.57;;;6.80;71.00;6.70;96285.00;;;;5111140;28;20209;-77
2023/03/15 06:00:49;;;;;;;3.90;2.00;;;6.90;71.10;6.70;96288.00;;;;5111579;28;20304;-76
2023/03/15 06:03:16;;;;;;;1.63;1.53;;;6.90;70.90;6.80;96293.00;;;;5076547;28;20282;-77
2023/03/15 06:05:44;;;;;;;2.27;1.70;;;6.90;70.90;6.80;96295.00;;;;5101044;28;20190;-77
2023/03/15 06:08:11;;;;;;;1.67;1.57;;;6.90;70.70;6.80;96301.00;;;;5103811;28;20219;-77
2023/03/15 06:10:40;;;;;;;1.97;1.73;;;6.90;70.60;6.80;96309.00;;;;5093448;28;20222;-76
2023/03/15 06:13:07;;;;;;;2.73;1.80;;;6.90;70.50;6.80;96306.00;;;;5098367;28;20201;-77
2023/03/15 06:15:35;;;;;;;4.33;1.63;;;6.90;70.40;6.80;96309.00;;;;5094144;28;20196;-76
2023/03/15 06:18:02;;;;;;;2.80;1.73;;;7.00;70.50;6.70;96323.00;;;;5107852;28;20241;-77
2023/03/15 06:20:30;;;;;;;1.90;1.63;;;7.00;70.20;6.70;96322.00;;;;5093949;28;20306;-77
2023/03/15 06:22:58;;;;;;;4.60;1.97;;;7.00;70.20;6.80;96336.00;;;;5093525;28;20234;-77
2023/03/15 06:25:25;;;;;;;3.03;1.77;;;7.00;70.40;6.80;96331.00;;;;5093922;28;20237;-77
2023/03/15 06:27:54;;;;;;;3.30;2.17;;;7.00;70.40;6.80;96336.00;;;;5095378;28;20721;-77
2023/03/15 06:30:21;;;;;;;2.57;1.97;;;7.00;70.50;6.80;96336.00;;;;5112374;28;20776;-77
2023/03/15 06:32:49;;;;;;;3.37;2.00;;;7.00;70.20;6.80;96334.00;;;;5098142;28;20199;-76
2023/03/15 06:35:16;;;;;;;2.37;2.03;;;7.00;69.90;6.80;96347.00;;;;5099886;28;20190;-77
2023/03/15 06:37:44;;;;;;;2.03;1.73;;;7.00;69.80;6.80;96341.00;;;;5112484;28;20233;-77
2023/03/15 06:40:12;;;;;;;3.13;1.77;;;7.00;69.90;6.80;96349.00;;;;5111229;28;20217;-77
2023/03/15 06:42:41;;;;;;;2.40;2.00;;;7.00;69.80;6.80;96348.00;;;;5102849;28;20202;-76
2023/03/15 06:45:11;;;;;;;4.13;1.70;;;7.00;69.70;6.80;96349.00;;;;5093418;28;20187;-76
2023/03/15 06:47:38;;;;;;;3.50;2.10;;;7.00;69.70;6.80;96355.00;;;;5104541;28;20218;-77
2023/03/15 06:50:07;;;;;;;3.90;2.03;;;7.00;69.60;6.80;96355.00;;;;5097284;28;20195;-78
2023/03/15 06:52:35;;;;;;;2.30;1.77;;;7.00;69.50;6.70;96356.00;;;;5093634;28;20199;-77
2023/03/15 06:55:02;;;;;;;2.20;2.00;;;7.00;69.40;6.70;96359.00;;;;5101928;28;20772;-77
2023/03/15 06:57:30;;;;;;;3.37;2.00;;;7.00;69.20;6.70;96354.00;;;;5112411;28;20234;-77
2023/03/15 06:59:58;;;;;;;3.30;2.30;;;7.00;69.20;6.70;96360.00;;;;5093463;28;20191;-77
2023/03/15 07:02:29;;;;;;;2.90;1.90;;;7.00;69.20;6.70;96363.00;;;;5109509;28;20195;-77
2023/03/15 07:04:59;;;;;;;5.23;2.43;;;6.90;69.30;6.70;96361.00;;;;5111932;28;20186;-78
2023/03/15 07:07:26;;;;;;;3.10;2.70;;;6.90;69.40;6.70;96364.00;;;;5095857;28;20218;-77
2023/03/15 07:09:53;;;;;;;3.40;2.50;;;6.90;69.50;6.70;96361.00;;;;5094965;28;20195;-77
2023/03/15 07:12:21;;;;;;;3.90;2.70;;;6.90;69.50;6.70;96361.00;;;;5096178;28;20309;-77
2023/03/15 07:14:48;;;;;;;2.80;2.47;;;6.90;69.40;6.60;96354.00;;;;5101971;28;20197;-76
2023/03/15 07:17:16;;;;;;;4.07;2.43;;;6.90;69.50;6.70;96349.00;;;;5100740;28;20215;-76
2023/03/15 07:19:44;;;;;;;3.73;2.20;;;6.90;69.50;6.70;96360.00;;;;5113648;28;20195;-76
2023/03/15 07:22:12;;;;;;;3.33;2.00;;;6.90;69.50;6.70;96370.00;;;;5113200;27;20592;-76
2023/03/15 07:24:39;;;;;;;2.67;2.07;;;6.90;69.50;6.70;96366.00;;;;5113937;28;20202;-76
2023/03/15 07:27:07;;;;;;;2.97;2.33;;;6.90;69.50;6.70;96366.00;;;;5112720;28;20214;-76
2023/03/15 07:29:34;;;;;;;4.37;2.60;;;6.90;69.60;6.70;96371.00;;;;5113461;28;20285;-76
2023/03/15 07:32:03;;;;;;;3.00;2.40;;;7.00;70.40;6.70;96382.00;;;;5111690;28;20729;-76
2023/03/15 07:34:30;;;;;;;3.17;2.87;;;7.00;69.60;6.70;96379.00;;;;5111667;28;20213;-75
2023/03/15 07:36:59;;;;;;;3.23;2.30;;;7.00;69.60;6.80;96381.00;;;;5111593;28;20718;-76
2023/03/15 07:39:27;;;;;;;3.40;2.20;;;7.00;69.80;6.80;96388.00;;;;5111674;28;20281;-76
2023/03/15 07:41:55;;;;;;;2.67;2.47;;;7.00;69.90;6.80;96388.00;;;;5110608;28;20199;-76
2023/03/15 07:44:22;;;;;;;3.30;2.33;;;7.10;70.20;6.90;96390.00;;;;5110914;28;20205;-76
2023/03/15 07:46:50;;;;;;;3.37;2.23;;;7.10;70.00;6.90;96410.00;;;;5113253;28;20802;-76
2023/03/15 07:49:18;;;;;;;2.77;2.57;;;7.10;70.10;7.10;96405.00;;;;5102268;28;20291;-76
2023/03/15 07:51:45;;;;;;;3.63;2.87;;;7.20;70.50;7.20;96418.00;;;;5075440;28;20314;-76
2023/03/15 07:54:14;;;;;;;4.10;2.83;;;7.30;70.60;7.40;96411.00;;;;5092679;28;20748;-76
2023/03/15 07:56:41;;;;;;;3.37;2.87;;;7.40;70.40;7.50;96408.00;;;;5092806;28;20307;-76
2023/03/15 07:59:08;;;;;;;5.20;3.13;;;7.50;70.40;7.60;96416.00;;;;5093322;28;20253;-76
2023/03/15 08:01:36;;;;;;;3.30;2.73;;;7.60;70.80;7.80;96411.00;;;;5093684;28;20215;-76
2023/03/15 08:04:03;;;;;;;4.40;3.23;;;7.70;70.90;8.00;96406.00;;;;5094332;28;20227;-76
2023/03/15 08:06:31;;;;;;;3.33;3.00;;;7.80;71.00;8.20;96414.00;;;;5092804;28;20303;-76
2023/03/15 08:09:00;;;;;;;4.30;3.23;;;8.00;70.70;8.30;96416.00;;;;5074996;28;20199;-76
2023/03/15 08:11:29;;;;;;;4.07;2.70;;;8.10;70.30;8.40;96427.00;;;;5074989;28;20747;-77
2023/03/15 08:13:56;;;;;;;6.13;3.13;;;8.20;69.90;8.40;96414.00;;;;5091506;28;20664;-76
2023/03/15 08:16:24;;;;;;;3.40;2.33;;;8.30;69.20;8.40;96417.00;;;;5092532;28;20254;-77
2023/03/15 08:18:51;;;;;;;2.97;2.37;;;8.40;68.40;8.30;96426.00;;;;5098737;28;20194;-76
2023/03/15 08:21:18;;;;;;;3.17;2.60;;;8.40;67.70;8.20;96422.00;;;;5094594;28;20288;-76
2023/03/15 08:23:46;;;;;;;3.20;2.70;;;8.40;67.20;8.20;96422.00;;;;5111792;28;20736;-76
2023/03/15 08:26:14;;;;;;;2.90;2.57;;;8.40;67.20;8.20;96423.00;;;;5112065;28;20301;-77
2023/03/15 08:28:45;;;;;;;2.97;2.63;;;8.40;66.90;8.20;96423.00;;;;5113383;28;20198;-77
2023/03/15 08:31:14;;;;;;;4.00;2.53;;;8.40;66.70;8.40;96426.00;;;;5110383;28;20309;-77
2023/03/15 08:33:41;;;;;;;2.63;2.17;;;8.40;67.20;8.60;96428.00;;;;5099608;28;20211;-77
2023/03/15 08:36:09;;;;;;;4.23;2.47;;;8.50;67.20;8.70;96435.00;;;;5099229;28;20238;-77
2023/03/15 08:38:38;;;;;;;3.63;2.37;;;8.60;66.70;8.70;96440.00;;;;5098009;28;20235;-77
2023/03/15 08:41:05;;;;;;;3.23;2.40;;;8.70;66.00;8.80;96433.00;;;;5094085;28;20203;-77
2023/03/15 08:43:33;;;;;;;5.37;2.73;;;8.70;65.80;8.80;96425.00;;;;5091522;28;20207;-77
2023/03/15 08:46:02;;;;;;;2.73;2.13;;;8.80;65.60;8.90;96418.00;;;;5090780;28;20314;-77
2023/03/15 08:48:30;;;;;;;3.33;2.00;;;8.90;65.50;9.10;96415.00;;;;5095413;28;20194;-77
2023/03/15 08:51:02;;;;;;;3.77;1.87;;;9.00;66.00;9.20;96425.00;;;;5112227;28;20699;-77
2023/03/15 08:53:30;;;;;;;3.23;1.70;;;9.10;64.90;9.40;96429.00;;;;5095731;28;20194;-77
2023/03/15 08:55:58;;;;;;;4.33;2.00;;;9.20;64.60;9.50;96440.00;;;;5112872;28;20237;-77
2023/03/15 08:58:25;;;;;;;1.83;1.57;;;9.30;64.50;9.70;96433.00;;;;5112473;28;20289;-78
2023/03/15 09:00:53;;;;;;;2.40;1.97;;;9.50;64.50;9.70;96424.00;;;;5112799;28;20746;-77
2023/03/15 09:03:22;;;;;;;3.43;2.20;;;9.60;63.70;9.80;96421.00;;;;5112623;28;20245;-77
2023/03/15 09:05:52;;;;;;;2.93;2.20;;;9.60;63.00;9.80;96423.00;;;;5110877;28;20244;-78
2023/03/15 09:08:20;;;;;;;2.77;2.00;;;9.70;62.50;9.80;96423.00;;;;5111782;28;20260;-77
2023/03/15 09:10:47;;;;;;;4.60;2.30;;;9.70;62.70;9.80;96429.00;;;;5112736;28;20561;-77
2023/03/15 09:13:15;;;;;;;2.67;1.77;;;9.80;62.70;9.80;96431.00;;;;5113707;28;20285;-79
2023/03/15 09:15:42;;;;;;;3.30;2.50;;;9.80;62.40;9.70;96420.00;;;;5113297;28;20285;-78
2023/03/15 09:18:10;;;;;;;4.70;2.53;;;9.80;61.60;9.70;96418.00;;;;5114503;28;20195;-77
2023/03/15 09:20:38;;;;;;;2.07;1.80;;;9.80;61.80;9.70;96433.00;;;;5095430;28;20547;-79
2023/03/15 09:23:05;;;;;;;2.23;1.97;;;9.80;62.00;9.70;96426.00;;;;5095406;28;20199;-78
2023/03/15 09:25:35;;;;;;;2.37;1.97;;;9.80;62.00;9.70;96430.00;;;;5077701;28;20200;-77
2023/03/15 09:28:03;;;;;;;3.07;2.10;;;9.80;61.90;9.60;96431.00;;;;5094972;28;20275;-77
2023/03/15 09:30:31;;;;;;;4.70;2.20;;;9.80;61.20;9.60;96433.00;;;;5095063;28;20200;-78
2023/03/15 09:32:58;;;;;;;4.13;2.07;;;9.70;60.90;9.60;96441.00;;;;5094574;28;20226;-78
2023/03/15 09:35:25;;;;;;;3.23;1.90;;;9.70;60.90;9.60;96445.00;;;;5093652;28;20274;-77
2023/03/15 09:37:57;;;;;;;2.67;2.10;;;9.70;60.90;9.60;96434.00;;;;5095458;28;20722;-78
2023/03/15 09:40:29;;;;;;;3.13;2.00;;;9.70;60.80;9.60;96436.00;;;;5095407;28;20192;-79
2023/03/15 09:43:13;;;;;;;1.87;1.70;;;9.70;60.70;9.80;96433.00;;;;5095627;28;20262;-78
2023/03/15 09:46:00;;;;;;;1.90;1.70;;;9.80;61.60;10.10;96441.00;;;;5095894;28;20206;-78
2023/03/15 09:48:36;;;;;;;3.20;1.93;;;9.90;61.70;10.50;96450.00;;;;5099395;28;20493;-78
2023/03/15 09:51:11;;;;;;;3.10;1.90;;;10.10;61.60;10.90;96449.00;;;;5115959;28;20247;-79
2023/03/15 09:53:50;;;;;;;2.93;2.10;;;10.30;61.90;11.20;96443.00;;;;5116224;28;20571;-79
2023/03/15 09:56:29;;;;;;;2.73;1.87;;;10.60;62.70;11.40;96471.00;;;;5116487;28;20218;-79
2023/03/15 09:59:01;;;;;;;2.37;1.80;;;10.80;62.40;11.50;96467.00;;;;5116722;28;20226;-78
2023/03/15 10:01:32;;;;;;;2.87;1.50;;;11.00;61.40;11.60;96466.00;;;;5116681;28;20211;-78
2023/03/15 10:04:10;;;;;;;2.80;1.30;;;11.20;60.10;11.60;96465.00;;;;5116976;28;20232;-78
2023/03/15 10:06:44;;;;;;;2.43;1.40;;;11.30;60.30;11.60;96476.00;;;;5116113;28;20252;-79
2023/03/15 10:09:20;;;;;;;1.93;1.40;;;11.40;60.00;11.70;96471.00;;;;5116591;27;20202;-78
2023/03/15 10:12:01;;;;;;;2.47;1.30;;;11.40;59.60;11.90;96471.00;;;;5116224;28;20313;-78
2023/03/15 10:14:54;;;;;;;2.13;1.10;;;11.60;60.00;12.20;96483.00;;;;5116392;28;20274;-78
2023/03/15 10:17:33;;;;;;;1.47;1.03;;;11.80;60.10;12.50;96476.00;;;;5114246;28;20814;-78
2023/03/15 10:20:09;;;;;;;1.80;1.47;;;12.10;59.70;12.80;96490.00;;;;5099705;28;20217;-78
2023/03/15 10:22:48;;;;;;;1.37;1.27;;;12.30;60.20;13.00;96488.00;;;;5095601;28;20274;-79
2023/03/15 10:25:24;;;;;;;5.30;1.43;;;12.60;60.90;13.30;96499.00;;;;5097841;28;20258;-78
2023/03/15 10:27:57;;;;;;;2.17;1.30;;;12.80;59.80;13.50;96493.00;;;;5094694;28;20211;-78
2023/03/15 10:30:27;;;;;;;3.33;1.50;;;13.10;58.90;13.40;96493.00;;;;5079187;28;20664;-79
2023/03/15 10:33:01;;;;;;;1.40;0.93;;;13.20;57.50;13.30;96492.00;;;;5096036;28;20774;-80
2023/03/15 10:35:30;;;;;;;3.47;1.03;;;13.30;56.80;13.20;96491.00;;;;5102371;28;20614;-80
2023/03/15 10:37:58;;;;;;;1.00;0.90;;;13.30;56.30;13.20;96492.00;;;;5117050;28;20222;-79
2023/03/15 10:40:48;;;;;;;1.80;1.30;;;13.30;56.10;13.30;96479.00;;;;5116434;28;20198;-77
2023/03/15 10:43:21;;;;;;;2.37;0.90;;;13.40;56.10;13.50;96483.00;;;;5118499;28;20203;-78
2023/03/15 10:46:00;;;;;;;1.97;1.00;;;13.50;56.80;13.70;96488.00;;;;5117627;28;20304;-78
2023/03/15 10:48:30;;;;;;;1.47;0.80;;;13.60;56.40;13.80;96490.00;;;;5099509;28;20205;-79
2023/03/15 10:50:58;;;;;;;1.77;0.87;;;13.70;56.40;14.00;96478.00;;;;5117749;28;20281;-78
2023/03/15 10:53:25;;;;;;;1.13;0.77;;;13.80;56.50;14.10;96487.00;;;;5116935;28;20222;-78
2023/03/15 10:56:04;;;;;;;2.27;1.20;;;13.90;56.10;14.20;96490.00;;;;5116786;28;20194;-79
2023/03/15 10:58:42;;;;;;;2.23;0.90;;;14.00;55.10;14.30;96486.00;;;;5116310;28;20205;-79
2023/03/15 11:01:23;;;;;;;2.63;0.90;;;14.10;54.00;14.20;96483.00;;;;5116893;28;20286;-79
2023/03/15 11:04:10;;;;;;;1.23;1.00;;;14.20;53.80;14.20;96479.00;;;;5117115;27;20198;-79
2023/03/15 11:06:44;;;;;;;2.33;1.30;;;14.20;53.20;14.20;96469.00;;;;5115802;28;20214;-78
2023/03/15 11:09:16;;;;;;;2.60;1.10;;;14.20;53.60;14.20;96468.00;;;;5118654;28;20225;-80
2023/03/15 11:11:58;;;;;;;2.23;1.10;;;14.20;54.00;14.20;96466.00;;;;5117866;28;20254;-80
2023/03/15 11:14:27;;;;;;;3.10;0.90;;;14.20;52.60;14.10;96462.00;;;;5118617;28;20297;-79
2023/03/15 11:16:58;;;;;;;1.13;0.80;;;14.10;53.00;14.00;96464.00;;;;5116134;28;20222;-79